Time;durP1;ratioP1;P1;durP2;ratioP2;P2;SDS_P1;SDS_P2;PMS_P1;PMS_P2;Temp;Humidity;BMP_temperature;BMP_pressure;BME280_temperature;BME280_humidity;BME280_pressure;Samples;Min_cycle;Max_cycle;Signal;HPM_P1;HPM_P2
2021/08/09 00:00:44;;;;;;;5.95;1.05;;;11.80;90.20;;;;;;6246092;23;20028;-77
2021/08/09 00:03:14;;;;;;;2.28;1.20;;;11.70;90.40;;;;;;6251469;22;20257;-77
2021/08/09 00:05:41;;;;;;;3.65;1.38;;;11.70;90.50;;;;;;6249831;23;20016;-77
2021/08/09 00:08:13;;;;;;;2.42;1.20;;;11.70;90.80;;;;;;6251709;23;20254;-77
2021/08/09 00:10:40;;;;;;;3.80;1.20;;;11.70;90.90;;;;;;6249835;23;20016;-77
2021/08/09 00:13:08;;;;;;;2.58;0.95;;;11.60;91.00;;;;;;6248104;23;20023;-77
2021/08/09 00:15:35;;;;;;;3.15;1.40;;;11.60;91.20;;;;;;6251691;23;20177;-77
2021/08/09 00:18:02;;;;;;;2.00;1.00;;;11.60;91.00;;;;;;6251842;23;20054;-77
2021/08/09 00:20:34;;;;;;;3.03;1.25;;;11.60;91.00;;;;;;6252478;22;20311;-77
2021/08/09 00:23:04;;;;;;;2.33;0.98;;;11.60;90.80;;;;;;6252441;22;20020;-77
2021/08/09 00:25:31;;;;;;;;;;;11.60;90.90;;;;;;6253877;22;20082;-77
2021/08/09 00:27:58;;;;;;;2.55;1.13;;;11.60;90.60;;;;;;6252299;22;20029;-78
2021/08/09 00:30:26;;;;;;;1.80;0.80;;;11.60;90.50;;;;;;6251994;22;20020;-77
2021/08/09 00:32:54;;;;;;;4.85;1.20;;;11.60;90.40;;;;;;6249406;22;20020;-78
2021/08/09 00:35:21;;;;;;;2.35;1.00;;;11.60;90.40;;;;;;6277418;22;20066;-77
2021/08/09 00:37:51;;;;;;;6.80;1.30;;;11.50;90.60;;;;;;6249247;23;20339;-77
2021/08/09 00:40:19;;;;;;;4.35;1.13;;;11.60;90.50;;;;;;6248938;23;20184;-78
2021/08/09 00:42:47;;;;;;;4.25;1.30;;;11.50;90.40;;;;;;6249265;23;20137;-77
2021/08/09 00:45:14;;;;;;;3.30;1.25;;;11.50;90.60;;;;;;6251845;23;20321;-77
2021/08/09 00:47:45;;;;;;;4.78;1.58;;;11.40;90.90;;;;;;6251794;23;20050;-77
2021/08/09 00:50:14;;;;;;;4.10;1.25;;;11.40;91.00;;;;;;6250587;23;20044;-77
2021/08/09 00:52:43;;;;;;;2.83;1.15;;;11.30;91.00;;;;;;6252228;23;20084;-77
2021/08/09 00:55:12;;;;;;;4.70;1.35;;;11.40;91.00;;;;;;6254467;22;20316;-77
2021/08/09 00:57:41;;;;;;;2.90;1.05;;;11.40;90.90;;;;;;6252320;23;20024;-77
2021/08/09 01:00:10;;;;;;;2.03;1.00;;;11.40;91.00;;;;;;6248210;22;20020;-77
2021/08/09 01:02:44;;;;;;;2.92;1.23;;;11.50;90.90;;;;;;6251851;23;20239;-77
2021/08/09 01:05:12;;;;;;;1.92;1.10;;;11.40;90.80;;;;;;6253666;23;20050;-77
2021/08/09 01:07:52;;;;;;;1.98;1.00;;;11.40;90.80;;;;;;6253596;23;20035;-77
2021/08/09 01:10:27;;;;;;;2.97;1.20;;;11.40;90.80;;;;;;6253126;23;20015;-77
2021/08/09 01:13:05;;;;;;;2.15;0.90;;;11.40;90.80;;;;;;6250955;23;20043;-77
2021/08/09 01:15:48;;;;;;;;;;;11.40;91.00;;;;;;2192963;23;10020931;-77
2021/08/09 01:18:17;;;;;;;4.30;1.05;;;11.40;90.80;;;;;;4958425;23;10001189;-77
2021/08/09 01:20:52;;;;;;;3.67;1.63;;;11.40;90.70;;;;;;6253311;23;20216;-77
2021/08/09 01:23:47;;;;;;;3.63;0.90;;;11.40;90.80;;;;;;6253681;23;20021;-77
2021/08/09 01:26:25;;;;;;;2.13;1.15;;;11.40;90.80;;;;;;6253318;22;20027;-77
2021/08/09 01:28:57;;;;;;;2.95;1.10;;;11.50;90.40;;;;;;6247250;23;20334;-77
2021/08/09 01:31:29;;;;;;;3.55;1.30;;;11.40;90.50;;;;;;6251199;23;20016;-77
2021/08/09 01:34:00;;;;;;;2.83;1.02;;;11.50;90.50;;;;;;6252871;23;20331;-77
2021/08/09 01:36:34;;;;;;;2.92;1.17;;;11.40;90.50;;;;;;6252315;23;20083;-77
2021/08/09 01:39:02;;;;;;;3.38;1.35;;;11.50;90.40;;;;;;6252216;23;20091;-77
2021/08/09 01:41:31;;;;;;;2.17;0.80;;;11.50;90.10;;;;;;6278390;22;20111;-77
2021/08/09 01:44:01;;;;;;;4.60;1.30;;;11.40;90.00;;;;;;6252868;23;20028;-77
2021/08/09 01:46:30;;;;;;;5.38;1.30;;;11.40;90.20;;;;;;6251658;23;20263;-77
2021/08/09 01:48:59;;;;;;;2.67;0.90;;;11.40;90.50;;;;;;6250969;23;20027;-76
2021/08/09 01:51:27;;;;;;;5.90;1.58;;;11.40;90.40;;;;;;6250633;23;20019;-77
2021/08/09 01:53:55;;;;;;;2.15;1.00;;;11.40;90.30;;;;;;6251190;23;20012;-77
2021/08/09 01:56:23;;;;;;;1.40;0.80;;;11.50;90.00;;;;;;6251335;23;20024;-77
2021/08/09 01:58:52;;;;;;;4.28;1.42;;;11.40;89.90;;;;;;6251463;23;20267;-77
2021/08/09 02:01:23;;;;;;;3.78;1.48;;;11.40;89.90;;;;;;6271349;22;20087;-77
2021/08/09 02:03:51;;;;;;;1.40;0.80;;;11.40;90.00;;;;;;6275675;22;20055;-77
2021/08/09 02:06:18;;;;;;;2.03;0.88;;;11.30;90.20;;;;;;6247571;23;20035;-77
2021/08/09 02:08:46;;;;;;;4.35;1.17;;;11.30;90.20;;;;;;6250706;23;20020;-77
2021/08/09 02:11:17;;;;;;;2.33;1.20;;;11.30;90.50;;;;;;6245974;23;20081;-77
2021/08/09 02:13:51;;;;;;;1.95;0.90;;;11.20;90.60;;;;;;6247807;23;20043;-77
2021/08/09 02:16:21;;;;;;;5.32;1.23;;;11.20;90.50;;;;;;6250604;23;20020;-77
2021/08/09 02:19:03;;;;;;;5.05;1.45;;;11.10;90.60;;;;;;6248175;23;20374;-77
2021/08/09 02:21:34;;;;;;;3.35;1.45;;;11.10;90.90;;;;;;6250065;23;20066;-77
2021/08/09 02:24:08;;;;;;;1.73;0.73;;;11.10;91.00;;;;;;6248062;23;20312;-77
2021/08/09 02:26:48;;;;;;;3.00;1.00;;;11.00;91.00;;;;;;6251350;22;20028;-77
2021/08/09 02:29:19;;;;;;;3.15;1.08;;;11.10;91.40;;;;;;6249034;23;20043;-77
2021/08/09 02:31:50;;;;;;;4.00;1.10;;;11.10;91.10;;;;;;6249952;23;20227;-77
2021/08/09 02:34:22;;;;;;;4.90;1.05;;;11.10;90.80;;;;;;6251084;23;20077;-76
2021/08/09 02:36:51;;;;;;;3.17;0.80;;;11.10;90.90;;;;;;6250540;23;20381;-77
2021/08/09 02:39:19;;;;;;;4.20;0.80;;;11.10;90.70;;;;;;6250024;23;20050;-77
2021/08/09 02:41:47;;;;;;;1.92;0.80;;;11.10;90.90;;;;;;6248473;23;20020;-77
2021/08/09 02:44:15;;;;;;;2.05;1.10;;;11.20;90.40;;;;;;6274656;22;20028;-77
2021/08/09 02:46:44;;;;;;;2.95;1.27;;;11.30;90.10;;;;;;6249304;22;20066;-77
2021/08/09 02:49:14;;;;;;;2.72;0.60;;;11.30;90.10;;;;;;6250665;23;20012;-77
2021/08/09 02:51:45;;;;;;;2.08;0.90;;;11.20;89.90;;;;;;6250045;23;20028;-77
2021/08/09 02:54:17;;;;;;;1.48;0.73;;;11.20;89.90;;;;;;6250025;23;20031;-77
2021/08/09 02:56:45;;;;;;;1.58;0.90;;;11.20;89.80;;;;;;6249936;23;20047;-78
2021/08/09 02:59:13;;;;;;;1.92;0.88;;;11.10;89.90;;;;;;6250892;23;20425;-77
2021/08/09 03:01:42;;;;;;;4.95;1.13;;;11.10;90.00;;;;;;6246728;23;20350;-77
2021/08/09 03:04:16;;;;;;;1.85;0.82;;;11.10;90.10;;;;;;6276291;22;20105;-77
2021/08/09 03:06:45;;;;;;;2.63;0.70;;;11.10;89.90;;;;;;6252042;23;20028;-78
2021/08/09 03:09:13;;;;;;;4.47;1.02;;;11.00;90.10;;;;;;6254901;22;20316;-77
2021/08/09 03:11:42;;;;;;;1.30;0.75;;;11.00;90.30;;;;;;6250727;23;20078;-77
2021/08/09 03:14:22;;;;;;;2.40;0.77;;;10.90;90.30;;;;;;6251653;23;20020;-77
2021/08/09 03:16:51;;;;;;;4.85;1.40;;;10.90;90.50;;;;;;6275445;22;20027;-77
2021/08/09 03:19:19;;;;;;;2.22;1.00;;;10.90;90.50;;;;;;6254675;23;20079;-77
2021/08/09 03:21:55;;;;;;;3.97;1.05;;;10.90;90.60;;;;;;6254223;23;20288;-77
2021/08/09 03:24:23;;;;;;;2.42;1.00;;;11.00;90.80;;;;;;6253142;23;20020;-77
2021/08/09 03:26:51;;;;;;;2.70;1.33;;;11.00;90.80;;;;;;6249851;22;20311;-77
2021/08/09 03:29:19;;;;;;;3.42;0.90;;;10.90;90.50;;;;;;6251018;23;20032;-77
2021/08/09 03:31:47;;;;;;;2.30;1.13;;;10.90;90.50;;;;;;6251774;22;20031;-77
2021/08/09 03:34:15;;;;;;;1.88;0.80;;;11.00;90.70;;;;;;6248657;23;20028;-77
2021/08/09 03:36:44;;;;;;;3.00;1.40;;;11.00;90.60;;;;;;6251079;22;20259;-77
2021/08/09 03:39:13;;;;;;;3.97;0.95;;;11.00;90.70;;;;;;6251252;23;20220;-78
2021/08/09 03:41:40;;;;;;;2.50;1.05;;;11.00;90.50;;;;;;6250491;23;20220;-78
2021/08/09 03:44:07;;;;;;;2.90;0.90;;;11.00;90.50;;;;;;6249721;23;20023;-77
2021/08/09 03:46:35;;;;;;;3.30;1.10;;;11.10;90.50;;;;;;6251746;22;20095;-77
2021/08/09 03:49:07;;;;;;;3.65;1.00;;;11.10;90.30;;;;;;6250852;23;20024;-78
2021/08/09 03:51:35;;;;;;;2.42;1.05;;;11.20;89.90;;;;;;6252303;23;20060;-78
2021/08/09 03:54:02;;;;;;;3.28;1.10;;;11.20;89.80;;;;;;6250699;23;20019;-77
2021/08/09 03:56:31;;;;;;;3.03;1.00;;;11.20;89.70;;;;;;6250796;23;20024;-77
2021/08/09 03:58:58;;;;;;;2.40;0.88;;;11.20;89.70;;;;;;6251067;22;20024;-78
2021/08/09 04:01:26;;;;;;;1.88;0.75;;;11.20;89.60;;;;;;6246099;23;20027;-77
2021/08/09 04:03:54;;;;;;;2.33;0.90;;;11.20;89.60;;;;;;6275911;22;20016;-77
2021/08/09 04:06:21;;;;;;;1.98;0.85;;;11.20;89.60;;;;;;6252918;23;20070;-78
2021/08/09 04:08:49;;;;;;;3.00;1.20;;;11.10;89.60;;;;;;6251933;23;20032;-77
2021/08/09 04:11:17;;;;;;;5.03;0.90;;;11.10;89.80;;;;;;6250640;23;20571;-77
2021/08/09 04:13:47;;;;;;;2.25;0.88;;;11.10;90.10;;;;;;6225504;23;20339;-77
2021/08/09 04:16:15;;;;;;;4.10;1.25;;;11.10;90.30;;;;;;6253099;22;20047;-77
2021/08/09 04:18:42;;;;;;;4.38;0.73;;;11.20;90.00;;;;;;6252117;23;20070;-77
2021/08/09 04:21:11;;;;;;;3.15;1.55;;;11.20;89.80;;;;;;6249457;23;20058;-78
2021/08/09 04:23:38;;;;;;;1.75;0.90;;;11.10;89.70;;;;;;6251212;23;20071;-77
2021/08/09 04:26:06;;;;;;;2.33;0.95;;;11.20;89.70;;;;;;6249923;22;20024;-76
2021/08/09 04:28:33;;;;;;;3.85;1.45;;;11.20;89.50;;;;;;6252369;22;20252;-77
2021/08/09 04:31:02;;;;;;;2.95;1.17;;;11.10;89.30;;;;;;6251420;23;20036;-77
2021/08/09 04:33:33;;;;;;;3.00;0.88;;;11.10;89.20;;;;;;6250623;23;20031;-77
2021/08/09 04:36:01;;;;;;;3.75;1.55;;;11.10;89.40;;;;;;6250482;23;20320;-77
2021/08/09 04:38:29;;;;;;;2.97;1.20;;;11.10;89.60;;;;;;6249942;23;20028;-77
2021/08/09 04:40:57;;;;;;;5.88;1.23;;;11.10;89.90;;;;;;6250096;23;20236;-77
2021/08/09 04:43:25;;;;;;;2.30;1.17;;;11.10;90.00;;;;;;6250441;23;20016;-78
2021/08/09 04:45:53;;;;;;;3.90;1.15;;;11.20;90.10;;;;;;6248815;23;20034;-78
2021/08/09 04:48:23;;;;;;;4.22;1.33;;;11.20;90.00;;;;;;6253529;23;20012;-77
2021/08/09 04:50:50;;;;;;;2.88;1.30;;;11.20;90.00;;;;;;6250523;22;20023;-77
2021/08/09 04:53:19;;;;;;;3.10;1.27;;;11.40;89.80;;;;;;6250136;23;20016;-77
2021/08/09 04:55:46;;;;;;;5.40;1.17;;;11.40;89.50;;;;;;6251023;23;20020;-77
2021/08/09 04:58:13;;;;;;;3.45;1.40;;;11.50;89.30;;;;;;6251571;23;20232;-77
2021/08/09 05:00:41;;;;;;;4.05;1.20;;;11.50;89.30;;;;;;6248844;22;20031;-77
2021/08/09 05:03:08;;;;;;;3.92;1.33;;;11.60;89.00;;;;;;6250047;23;20024;-78
2021/08/09 05:05:37;;;;;;;4.78;1.52;;;11.60;89.00;;;;;;6250254;23;20362;-77
2021/08/09 05:08:05;;;;;;;4.32;1.10;;;11.60;88.80;;;;;;6250029;23;20270;-77
2021/08/09 05:10:35;;;;;;;3.70;1.05;;;11.60;89.00;;;;;;6248117;23;20032;-77
2021/08/09 05:13:03;;;;;;;4.82;1.23;;;11.70;89.20;;;;;;6250410;23;20062;-77
2021/08/09 05:15:35;;;;;;;3.75;1.02;;;11.70;89.00;;;;;;6248344;23;20020;-77
2021/08/09 05:18:02;;;;;;;5.90;1.70;;;11.80;88.90;;;;;;6251481;22;20191;-77
2021/08/09 05:20:30;;;;;;;3.97;0.90;;;11.90;88.40;;;;;;6247750;23;20345;-77
2021/08/09 05:22:59;;;;;;;2.20;1.08;;;11.90;88.30;;;;;;6250039;22;20020;-77
2021/08/09 05:25:26;;;;;;;3.17;1.50;;;11.90;88.40;;;;;;6250766;22;20024;-77
2021/08/09 05:27:53;;;;;;;3.97;1.30;;;11.90;88.20;;;;;;6253240;22;20070;-77
2021/08/09 05:30:21;;;;;;;2.05;0.90;;;11.90;88.00;;;;;;6251155;23;20243;-77
2021/08/09 05:32:48;;;;;;;6.88;1.52;;;11.90;88.00;;;;;;6248431;23;20024;-78
2021/08/09 05:35:15;;;;;;;3.45;1.35;;;11.90;88.20;;;;;;6248209;23;20028;-77
2021/08/09 05:37:43;;;;;;;4.72;1.00;;;11.90;88.20;;;;;;6250784;23;20058;-77
2021/08/09 05:40:13;;;;;;;3.70;1.15;;;11.80;88.30;;;;;;6225893;23;20083;-77
2021/08/09 05:42:41;;;;;;;2.50;0.93;;;11.90;88.60;;;;;;6250323;23;20027;-77
2021/08/09 05:45:09;;;;;;;3.15;1.25;;;11.80;88.70;;;;;;6252937;23;20381;-77
2021/08/09 05:47:39;;;;;;;1.73;0.80;;;11.80;88.90;;;;;;6250602;23;20071;-77
2021/08/09 05:50:10;;;;;;;3.60;1.33;;;11.90;88.70;;;;;;6249804;23;20094;-77
2021/08/09 05:52:42;;;;;;;6.85;1.23;;;11.90;88.70;;;;;;6249813;23;20294;-77
2021/08/09 05:55:14;;;;;;;2.85;1.17;;;11.90;88.80;;;;;;6250971;23;20288;-77
2021/08/09 05:57:43;;;;;;;3.63;1.10;;;11.80;88.50;;;;;;6251319;22;20042;-77
2021/08/09 06:00:12;;;;;;;2.20;1.00;;;11.90;88.50;;;;;;6246325;23;20020;-77
2021/08/09 06:02:42;;;;;;;5.28;1.75;;;12.10;88.00;;;;;;6251836;23;20038;-77
2021/08/09 06:05:15;;;;;;;7.10;1.27;;;12.10;87.80;;;;;;6251139;23;20020;-76
2021/08/09 06:07:45;;;;;;;2.95;0.90;;;12.40;87.20;;;;;;6251944;23;20205;-77
2021/08/09 06:10:14;;;;;;;2.65;1.08;;;12.40;86.50;;;;;;6249610;23;20020;-77
2021/08/09 06:12:42;;;;;;;3.80;1.17;;;12.50;86.70;;;;;;6250739;23;20028;-77
2021/08/09 06:15:11;;;;;;;4.03;0.90;;;12.70;86.20;;;;;;6250891;22;20048;-77
2021/08/09 06:17:39;;;;;;;3.20;1.15;;;12.90;85.40;;;;;;6250132;23;20383;-77
2021/08/09 06:20:08;;;;;;;2.45;1.10;;;13.10;85.20;;;;;;6250036;23;20044;-77
2021/08/09 06:22:37;;;;;;;4.43;1.35;;;13.20;84.60;;;;;;6251051;23;20035;-78
2021/08/09 06:25:05;;;;;;;3.08;1.00;;;13.50;84.40;;;;;;6251882;23;20127;-77
2021/08/09 06:27:34;;;;;;;1.92;1.08;;;13.70;83.90;;;;;;6249465;22;20248;-77
2021/08/09 06:30:03;;;;;;;8.90;1.65;;;13.90;83.40;;;;;;6249957;23;20020;-77
2021/08/09 06:32:34;;;;;;;3.42;1.20;;;14.10;83.40;;;;;;6249135;23;20079;-77
2021/08/09 06:35:02;;;;;;;2.80;1.25;;;14.20;82.60;;;;;;6251736;22;20072;-78
2021/08/09 06:37:32;;;;;;;3.30;1.30;;;14.30;82.90;;;;;;6278937;22;20028;-77
2021/08/09 06:39:59;;;;;;;1.33;0.80;;;14.50;82.50;;;;;;6255962;23;20030;-77
2021/08/09 06:42:27;;;;;;;2.47;1.00;;;14.40;82.10;;;;;;6252348;23;20121;-78
2021/08/09 06:45:12;;;;;;;5.20;1.30;;;14.30;82.70;;;;;;6279435;22;20304;-77
2021/08/09 06:47:41;;;;;;;6.63;1.25;;;14.20;83.20;;;;;;6275951;22;20020;-77
2021/08/09 06:50:09;;;;;;;5.85;1.02;;;14.20;83.30;;;;;;6253559;23;20012;-77
2021/08/09 06:52:37;;;;;;;2.67;1.05;;;14.20;83.70;;;;;;6251026;23;20032;-77
2021/08/09 06:55:06;;;;;;;6.45;2.28;;;14.30;83.30;;;;;;6251710;23;20413;-77
2021/08/09 06:57:36;;;;;;;2.10;1.00;;;14.20;83.40;;;;;;6251970;23;20076;-77
2021/08/09 07:00:05;;;;;;;2.50;1.23;;;14.40;83.40;;;;;;6248313;23;20082;-76
2021/08/09 07:02:35;;;;;;;2.58;0.80;;;14.50;83.10;;;;;;6251262;23;20028;-77
2021/08/09 07:05:02;;;;;;;2.60;1.30;;;14.50;82.90;;;;;;6273141;22;20016;-77
2021/08/09 07:07:30;;;;;;;3.85;1.55;;;14.60;82.90;;;;;;6250605;23;20216;-77
2021/08/09 07:09:59;;;;;;;2.85;1.20;;;14.60;82.60;;;;;;6250074;23;20012;-77
2021/08/09 07:12:28;;;;;;;4.23;1.03;;;14.80;82.60;;;;;;6249965;23;20334;-77
2021/08/09 07:14:55;;;;;;;2.67;1.05;;;14.90;82.20;;;;;;6251382;23;20434;-77
2021/08/09 07:17:23;;;;;;;2.35;1.00;;;15.00;82.40;;;;;;6249648;23;20031;-77
2021/08/09 07:19:51;;;;;;;5.00;1.20;;;15.20;82.10;;;;;;6249822;23;20020;-77
2021/08/09 07:22:19;;;;;;;3.22;0.70;;;15.30;81.40;;;;;;6252589;22;20028;-77
2021/08/09 07:24:47;;;;;;;1.70;0.82;;;15.40;81.20;;;;;;6251429;23;20054;-77
2021/08/09 07:27:14;;;;;;;1.92;0.75;;;15.60;80.70;;;;;;6252361;22;20054;-77
2021/08/09 07:29:43;;;;;;;2.42;0.80;;;15.90;80.10;;;;;;6253062;23;20031;-77
2021/08/09 07:32:12;;;;;;;2.83;0.75;;;16.20;79.30;;;;;;6254135;23;20016;-77
2021/08/09 07:34:39;;;;;;;3.72;0.70;;;16.70;78.40;;;;;;6251959;23;20016;-77
2021/08/09 07:37:08;;;;;;;3.85;0.70;;;17.10;77.30;;;;;;6251562;23;20053;-77
2021/08/09 07:39:38;;;;;;;3.35;0.98;;;17.10;77.50;;;;;;6251716;23;20020;-77
2021/08/09 07:42:07;;;;;;;2.20;1.08;;;17.10;76.70;;;;;;6252011;23;20028;-78
2021/08/09 07:44:35;;;;;;;2.03;0.73;;;17.10;75.90;;;;;;6250433;23;20064;-76
2021/08/09 07:47:02;;;;;;;3.03;0.65;;;17.10;76.20;;;;;;6254564;22;20319;-77
2021/08/09 07:49:30;;;;;;;2.53;0.75;;;17.20;75.10;;;;;;6251582;23;20028;-77
2021/08/09 07:51:58;;;;;;;2.97;0.70;;;17.20;74.90;;;;;;6251041;23;20024;-77
2021/08/09 07:54:26;;;;;;;2.70;0.63;;;17.30;74.60;;;;;;6251427;23;20312;-77
2021/08/09 07:56:54;;;;;;;1.88;0.70;;;17.40;75.00;;;;;;6254982;22;20066;-78
2021/08/09 07:59:22;;;;;;;2.22;0.90;;;17.50;74.10;;;;;;6254438;23;20016;-77
2021/08/09 08:01:52;;;;;;;1.83;0.60;;;17.60;74.60;;;;;;6241775;23;20066;-77
2021/08/09 08:04:20;;;;;;;1.30;0.75;;;17.70;74.60;;;;;;6253099;23;20054;-77
2021/08/09 08:06:47;;;;;;;1.27;0.50;;;17.70;74.40;;;;;;6252747;23;20234;-77
2021/08/09 08:09:15;;;;;;;4.25;0.70;;;17.70;74.60;;;;;;6278777;22;20027;-77
2021/08/09 08:11:46;;;;;;;1.75;1.42;;;17.60;73.80;;;;;;6250989;23;20320;-77
2021/08/09 08:14:14;;;;;;;2.22;1.85;;;17.70;75.00;;;;;;6254325;23;20158;-77
2021/08/09 08:16:41;;;;;;;3.15;0.70;;;17.90;74.20;;;;;;6252424;23;20043;-77
2021/08/09 08:19:09;;;;;;;4.85;0.82;;;18.10;73.90;;;;;;6252329;23;20035;-77
2021/08/09 08:21:36;;;;;;;3.03;0.93;;;18.20;73.80;;;;;;6248115;23;20365;-77
2021/08/09 08:24:04;;;;;;;2.25;0.80;;;18.20;73.50;;;;;;6253692;23;20343;-77
2021/08/09 08:26:31;;;;;;;3.33;1.05;;;18.30;74.10;;;;;;6273542;22;20027;-77
2021/08/09 08:29:00;;;;;;;3.53;1.13;;;18.50;73.50;;;;;;6251769;23;20272;-76
2021/08/09 08:31:31;;;;;;;4.93;1.20;;;18.60;73.70;;;;;;6251259;23;20293;-76
2021/08/09 08:33:58;;;;;;;2.78;0.55;;;18.80;73.30;;;;;;6249515;23;20324;-76
2021/08/09 08:36:26;;;;;;;2.83;0.93;;;19.00;72.40;;;;;;6249576;23;20020;-77
2021/08/09 08:38:53;;;;;;;5.80;0.80;;;19.10;72.30;;;;;;6247303;23;20372;-76
2021/08/09 08:41:22;;;;;;;1.98;0.80;;;19.30;71.40;;;;;;6247630;23;20027;-76
2021/08/09 08:43:49;;;;;;;4.50;1.13;;;19.30;70.90;;;;;;6247979;23;20393;-77
2021/08/09 08:46:20;;;;;;;1.15;0.60;;;19.70;69.80;;;;;;6245121;23;20020;-77
2021/08/09 08:48:48;;;;;;;2.05;0.70;;;20.00;68.30;;;;;;6249720;23;20028;-77
2021/08/09 08:51:15;;;;;;;3.22;0.70;;;20.00;67.50;;;;;;6247697;23;20020;-78
2021/08/09 08:53:45;;;;;;;2.50;0.88;;;20.10;67.80;;;;;;6275507;22;20018;-78
2021/08/09 08:56:12;;;;;;;4.38;0.90;;;20.30;67.60;;;;;;6246127;23;20232;-76
2021/08/09 08:58:40;;;;;;;2.45;0.90;;;20.50;67.80;;;;;;6247479;23;20035;-77
2021/08/09 09:01:07;;;;;;;3.15;0.73;;;20.60;67.80;;;;;;6246312;23;20066;-77
2021/08/09 09:03:40;;;;;;;3.63;0.70;;;20.60;65.30;;;;;;6249596;23;20075;-77
2021/08/09 09:06:09;;;;;;;3.67;0.85;;;20.60;65.80;;;;;;6247092;23;20039;-77
2021/08/09 09:08:40;;;;;;;0.93;0.47;;;20.60;65.20;;;;;;6252942;22;20008;-77
2021/08/09 09:11:09;;;;;;;4.95;0.73;;;20.80;63.70;;;;;;6251047;22;20016;-77
2021/08/09 09:13:37;;;;;;;1.63;0.60;;;20.90;62.30;;;;;;6248597;23;20020;-75
2021/08/09 09:16:07;;;;;;;3.53;0.88;;;20.90;61.50;;;;;;6226439;23;20802;-75
2021/08/09 09:18:55;;;;;;;1.23;0.60;;;20.90;62.20;;;;;;6250659;23;20311;-76
2021/08/09 09:21:32;;;;;;;2.60;0.68;;;21.20;62.10;;;;;;6247386;22;20024;-76
2021/08/09 09:24:11;;;;;;;2.08;0.60;;;21.30;60.20;;;;;;6246436;23;20020;-75
2021/08/09 09:26:40;;;;;;;2.00;0.70;;;21.50;59.90;;;;;;6249271;22;20028;-75
2021/08/09 09:29:12;;;;;;;2.55;0.70;;;21.70;60.50;;;;;;6246894;22;20016;-75
2021/08/09 09:31:48;;;;;;;1.20;0.57;;;21.70;59.80;;;;;;6249732;23;20024;-77
2021/08/09 09:34:18;;;;;;;3.65;0.77;;;21.80;58.70;;;;;;6246830;23;20026;-77
2021/08/09 09:36:48;;;;;;;0.82;0.50;;;21.80;59.80;;;;;;6250390;22;20086;-78
2021/08/09 09:39:36;;;;;;;1.98;0.70;;;22.10;59.00;;;;;;6247583;22;20039;-76
2021/08/09 09:42:06;;;;;;;1.63;0.73;;;21.80;58.10;;;;;;6248562;22;20289;-78
2021/08/09 09:44:36;;;;;;;1.75;0.60;;;21.80;57.70;;;;;;6245616;23;20058;-76
2021/08/09 09:47:20;;;;;;;1.90;0.40;;;21.90;57.10;;;;;;6248934;22;20051;-76
2021/08/09 09:49:50;;;;;;;4.57;0.68;;;22.00;56.50;;;;;;6246768;22;20062;-75
2021/08/09 09:52:34;;;;;;;2.78;1.05;;;22.10;56.10;;;;;;6247060;22;20023;-76
2021/08/09 09:55:04;;;;;;;1.23;0.65;;;22.40;56.40;;;;;;6246738;22;20024;-76
2021/08/09 09:57:33;;;;;;;2.15;0.85;;;22.30;55.00;;;;;;6247116;23;20401;-76
2021/08/09 10:00:00;;;;;;;2.28;0.52;;;22.40;56.00;;;;;;6247920;23;20332;-76
2021/08/09 10:02:40;;;;;;;;;;;22.20;56.60;;;;;;6250002;22;20100;-76
2021/08/09 10:05:10;;;;;;;1.75;0.52;;;22.40;56.30;;;;;;6246878;23;19920;-76
2021/08/09 10:07:38;;;;;;;1.73;0.68;;;22.60;54.80;;;;;;6250391;23;20071;-76
2021/08/09 10:10:08;;;;;;;4.07;1.00;;;23.00;54.70;;;;;;6249090;22;20043;-76
2021/08/09 10:12:36;;;;;;;;;;;23.30;51.40;;;;;;6246316;22;20023;-76
2021/08/09 10:15:05;;;;;;;2.58;0.60;;;23.20;51.50;;;;;;6247761;22;19938;-76
2021/08/09 10:17:37;;;;;;;6.05;1.20;;;22.80;51.70;;;;;;6248274;23;20028;-76
2021/08/09 10:20:06;;;;;;;;;;;22.80;51.40;;;;;;6247883;22;20028;-76
2021/08/09 10:22:54;;;;;;;2.97;0.85;;;22.60;51.10;;;;;;6250191;22;19923;-76
2021/08/09 10:25:44;;;;;;;2.53;0.70;;;23.50;51.00;;;;;;6247261;23;20075;-76
2021/08/09 10:28:11;;;;;;;2.22;0.70;;;24.00;50.50;;;;;;6247162;22;20024;-76
2021/08/09 10:30:38;;;;;;;3.97;0.68;;;23.60;50.70;;;;;;6247364;22;20070;-76
2021/08/09 10:33:08;;;;;;;2.97;0.90;;;23.30;50.60;;;;;;6247494;22;20016;-76
2021/08/09 10:35:59;;;;;;;2.40;0.85;;;23.10;51.90;;;;;;6245817;23;20110;-76
2021/08/09 10:38:36;;;;;;;1.58;0.80;;;23.30;52.20;;;;;;6244491;22;20020;-76
2021/08/09 10:41:35;;;;;;;1.20;0.52;;;24.20;50.40;;;;;;6248038;22;20066;-76
2021/08/09 10:44:27;;;;;;;1.90;0.80;;;24.80;48.60;;;;;;6246834;23;20332;-76
2021/08/09 10:46:57;;;;;;;3.90;1.00;;;24.60;48.70;;;;;;6249354;22;20069;-76
2021/08/09 10:49:58;;;;;;;2.78;0.75;;;26.80;42.60;;;;;;6249412;23;20320;-77
2021/08/09 10:52:48;;;;;;;1.83;0.43;;;26.60;42.90;;;;;;6249974;23;20035;-77
2021/08/09 10:55:39;;;;;;;;;;;26.80;43.20;;;;;;6252944;22;20021;-77
2021/08/09 10:58:08;;;;;;;2.50;0.70;;;28.00;41.70;;;;;;6228480;22;19927;-78
2021/08/09 11:00:54;;;;;;;4.53;0.77;;;27.60;40.20;;;;;;6241393;23;20032;-77
2021/08/09 11:03:21;;;;;;;2.13;0.50;;;27.10;41.10;;;;;;6275916;22;20035;-77
2021/08/09 11:05:49;;;;;;;4.07;0.90;;;26.10;44.00;;;;;;6252696;22;20038;-77
2021/08/09 11:08:33;;;;;;;1.98;0.70;;;26.40;43.40;;;;;;6251304;22;20028;-77
2021/08/09 11:11:06;;;;;;;1.90;0.65;;;26.20;42.00;;;;;;6247576;23;20036;-77
2021/08/09 11:14:13;;;;;;;2.47;0.73;;;26.20;43.00;;;;;;6250189;23;20350;-77
2021/08/09 11:16:41;;;;;;;2.90;0.77;;;26.20;43.10;;;;;;6246756;23;20055;-76
2021/08/09 11:19:08;;;;;;;1.90;0.73;;;26.30;42.70;;;;;;6247449;23;20228;-77
2021/08/09 11:21:36;;;;;;;1.92;0.50;;;26.00;44.00;;;;;;6252385;22;20039;-77
2021/08/09 11:24:03;;;;;;;2.05;0.98;;;25.40;45.20;;;;;;6248228;23;20247;-77
2021/08/09 11:26:35;;;;;;;2.35;0.82;;;24.60;46.60;;;;;;6252609;22;20038;-76
2021/08/09 11:29:06;;;;;;;2.25;0.43;;;24.10;47.40;;;;;;6254445;23;20330;-77
2021/08/09 11:31:46;;;;;;;1.55;0.60;;;23.50;47.80;;;;;;6252721;23;20028;-77
2021/08/09 11:34:14;;;;;;;2.92;0.75;;;23.50;48.00;;;;;;6250802;23;20082;-76
2021/08/09 11:36:42;;;;;;;1.42;0.60;;;23.80;47.70;;;;;;6249493;22;20024;-77
2021/08/09 11:39:09;;;;;;;1.83;0.50;;;24.00;47.90;;;;;;6249047;22;20098;-77
2021/08/09 11:41:38;;;;;;;2.35;0.57;;;24.30;47.30;;;;;;6249813;22;20071;-77
2021/08/09 11:44:08;;;;;;;1.67;0.50;;;25.40;45.50;;;;;;6251482;22;20260;-77
2021/08/09 11:46:47;;;;;;;2.55;0.60;;;25.30;46.00;;;;;;6254512;22;20068;-77
2021/08/09 11:49:14;;;;;;;2.07;0.90;;;26.10;43.80;;;;;;6250820;22;20034;-76
2021/08/09 11:51:42;;;;;;;2.00;0.82;;;25.60;45.40;;;;;;6248803;23;20426;-77
2021/08/09 11:54:10;;;;;;;1.75;0.50;;;25.10;46.20;;;;;;6249410;23;20311;-76
2021/08/09 11:56:38;;;;;;;4.72;0.80;;;25.10;44.00;;;;;;6250182;23;20319;-77
2021/08/09 11:59:17;;;;;;;1.58;0.50;;;24.90;44.30;;;;;;6249325;23;20326;-77
2021/08/09 12:01:47;;;;;;;1.63;0.65;;;25.10;43.50;;;;;;6245566;23;20093;-77
2021/08/09 12:04:16;;;;;;;6.35;0.88;;;25.70;43.90;;;;;;6248985;23;20043;-77
2021/08/09 12:06:49;;;;;;;2.13;0.80;;;26.20;42.50;;;;;;6247499;23;20311;-77
2021/08/09 12:09:17;;;;;;;1.83;0.50;;;26.00;42.10;;;;;;6246649;23;20020;-77
2021/08/09 12:11:45;;;;;;;1.10;0.60;;;25.60;43.20;;;;;;6247731;23;20220;-77
2021/08/09 12:14:14;;;;;;;2.17;0.80;;;25.30;43.20;;;;;;6247949;23;20296;-77
2021/08/09 12:16:51;;;;;;;2.83;0.90;;;25.10;43.70;;;;;;6248062;23;20246;-77
2021/08/09 12:19:20;;;;;;;3.60;0.50;;;25.00;44.00;;;;;;6248361;22;20031;-78
2021/08/09 12:21:49;;;;;;;2.97;0.77;;;24.60;44.50;;;;;;6249477;23;20275;-77
2021/08/09 12:24:20;;;;;;;3.05;0.60;;;24.90;44.20;;;;;;6250384;23;20024;-77
2021/08/09 12:26:50;;;;;;;1.60;0.60;;;24.50;43.80;;;;;;6250747;22;20020;-77
2021/08/09 12:29:19;;;;;;;2.50;0.70;;;24.90;44.10;;;;;;6250101;23;20071;-77
2021/08/09 12:31:47;;;;;;;2.25;0.63;;;24.60;44.60;;;;;;6250016;23;20039;-76
2021/08/09 12:34:19;;;;;;;5.00;0.82;;;24.60;45.00;;;;;;6249438;22;20028;-77
2021/08/09 12:36:47;;;;;;;2.05;0.50;;;24.80;44.80;;;;;;6251030;23;20024;-77
2021/08/09 12:39:30;;;;;;;4.45;0.70;;;25.70;43.50;;;;;;6249936;22;20024;-77
2021/08/09 12:41:57;;;;;;;4.38;0.60;;;26.50;41.00;;;;;;6250986;23;20028;-77
2021/08/09 12:44:24;;;;;;;3.03;0.82;;;27.50;39.80;;;;;;6251383;22;20263;-76
2021/08/09 12:46:52;;;;;;;1.85;0.68;;;28.20;38.50;;;;;;6251877;23;20032;-75
2021/08/09 12:49:30;;;;;;;1.58;0.55;;;29.20;37.30;;;;;;6248386;23;20028;-75
2021/08/09 12:51:57;;;;;;;1.50;0.50;;;29.50;36.20;;;;;;6251313;23;20189;-75
2021/08/09 12:54:25;;;;;;;2.33;0.65;;;31.10;34.10;;;;;;6250548;22;20047;-75
2021/08/09 12:56:52;;;;;;;3.63;0.75;;;30.40;34.30;;;;;;6275535;22;20292;-76
2021/08/09 12:59:19;;;;;;;3.25;0.73;;;30.90;33.10;;;;;;6250938;22;20022;-76
2021/08/09 13:01:47;;;;;;;1.92;0.80;;;29.90;33.80;;;;;;6243068;23;20122;-76
2021/08/09 13:04:14;;;;;;;3.22;0.80;;;28.10;37.30;;;;;;6251215;23;20016;-75